Station Historical Data
Daily Summary for June 10, 2017 Units:  English    Metric   Both
« Previous Day
Next Day »
Daily Weekly Monthly Yearly Custom
  High: Low: Average:
Temperature: 61.7 °F 45.6 °F 53.4 °F
Dew Point: 47.2 °F 41.6 °F 44.2 °F
Humidity: 92 % 50 % 72 %
Wind Speed: 12.0 mph 0.0 mph 1.8 mph
Wind Gust: 14.0 mph - -
Wind:- - SSW
Pressure: 29.96 in 29.89 in -
Precipitation: 0.00 in    
Historical Graphs
 
 
Tabular Data for June 10, 2017
Time Temperature Dew Point Pressure Wind Wind Speed Wind Gust Humidity Rainfall Rate (Hourly) solar
00:01 50.1 °F 45.2 °F 29.94 in Calm     83 % 0.00 in 0.00 W/m2
00:06 50.0 °F 45.0 °F 29.94 in Calm     83 % 0.00 in 0.00 W/m2
00:11 49.9 °F 45.0 °F 29.94 in Calm     83 % 0.00 in 0.00 W/m2
00:16 49.7 °F 44.8 °F 29.94 in Calm     83 % 0.00 in 0.00 W/m2
00:21 49.6 °F 45.0 °F 29.94 in Calm   1.0 mph 84 % 0.00 in 0.00 W/m2
00:26 49.5 °F 44.9 °F 29.94 in Calm   1.0 mph 84 % 0.00 in 0.00 W/m2
00:31 49.4 °F 44.8 °F 29.94 in SSE 1.0 mph 1.0 mph 84 % 0.00 in 0.00 W/m2
00:36 49.2 °F 44.6 °F 29.94 in Calm     84 % 0.00 in 0.00 W/m2
00:41 49.1 °F 44.5 °F 29.94 in Calm   1.0 mph 84 % 0.00 in 0.00 W/m2
00:46 49.0 °F 44.7 °F 29.94 in SSE 4.0 mph 9.0 mph 85 % 0.00 in 0.00 W/m2
00:51 48.8 °F 44.5 °F 29.93 in SE 4.0 mph 7.0 mph 85 % 0.00 in 0.00 W/m2
00:56 48.7 °F 44.4 °F 29.93 in SE 2.0 mph 10.0 mph 85 % 0.00 in 0.00 W/m2
01:01 48.6 °F 44.6 °F 29.93 in SE 4.0 mph 9.0 mph 86 % 0.00 in 0.00 W/m2
01:07 48.5 °F 44.5 °F 29.93 in Calm     86 % 0.00 in 0.00 W/m2
01:12 48.3 °F 44.3 °F 29.93 in Calm     86 % 0.00 in 0.00 W/m2
01:17 48.2 °F 44.2 °F 29.93 in Calm     86 % 0.00 in 0.00 W/m2
01:22 48.1 °F 44.1 °F 29.93 in Calm     86 % 0.00 in 0.00 W/m2
01:27 48.0 °F 44.0 °F 29.93 in Calm     86 % 0.00 in 0.00 W/m2
01:32 47.9 °F 43.9 °F 29.93 in Calm     86 % 0.00 in 0.00 W/m2
01:37 47.9 °F 43.9 °F 29.92 in Calm     86 % 0.00 in 0.00 W/m2
01:42 47.8 °F 44.1 °F 29.92 in Calm     87 % 0.00 in 0.00 W/m2
01:47 47.8 °F 44.1 °F 29.92 in Calm     87 % 0.00 in 0.00 W/m2
01:52 47.8 °F 44.1 °F 29.92 in Calm     87 % 0.00 in 0.00 W/m2
01:54 47.8 °F 44.1 °F 29.92 in Calm     87 % 0.00 in 0.00 W/m2
01:59 47.8 °F 44.1 °F 29.92 in Calm     87 % 0.00 in 0.00 W/m2
02:04 47.8 °F 44.1 °F 29.92 in Calm     87 % 0.00 in 0.00 W/m2
02:09 47.8 °F 44.1 °F 29.92 in Calm     87 % 0.00 in 0.00 W/m2
02:14 47.8 °F 44.1 °F 29.92 in Calm     87 % 0.00 in 0.00 W/m2
02:19 47.8 °F 44.1 °F 29.92 in Calm     87 % 0.00 in 0.00 W/m2
02:24 47.8 °F 44.1 °F 29.92 in Calm     87 % 0.00 in 0.00 W/m2
02:29 47.8 °F 44.1 °F 29.92 in Calm     87 % 0.00 in 0.00 W/m2
02:34 47.8 °F 44.1 °F 29.92 in Calm     87 % 0.00 in 0.00 W/m2
02:39 47.8 °F 44.1 °F 29.92 in Calm     87 % 0.00 in 0.00 W/m2
02:44 47.8 °F 44.1 °F 29.91 in Calm     87 % 0.00 in 0.00 W/m2
02:49 47.8 °F 44.1 °F 29.91 in Calm     87 % 0.00 in 0.00 W/m2
02:55 47.7 °F 44.0 °F 29.91 in Calm     87 % 0.00 in 0.00 W/m2
03:00 47.7 °F 44.0 °F 29.91 in SE 7.0 mph 12.0 mph 87 % 0.00 in 0.00 W/m2
03:05 47.7 °F 44.0 °F 29.91 in SE 9.0 mph 11.0 mph 87 % 0.00 in 0.00 W/m2
03:10 47.6 °F 43.9 °F 29.90 in SE 11.0 mph 11.0 mph 87 % 0.00 in 0.00 W/m2
03:15 47.6 °F 43.9 °F 29.90 in SE 7.0 mph 12.0 mph 87 % 0.00 in 0.00 W/m2
03:20 47.6 °F 43.6 °F 29.90 in SE 5.0 mph 11.0 mph 86 % 0.00 in 0.00 W/m2
03:25 47.6 °F 43.6 °F 29.90 in SE 11.0 mph 11.0 mph 86 % 0.00 in 0.00 W/m2
03:30 47.6 °F 43.6 °F 29.90 in SE 9.0 mph 12.0 mph 86 % 0.00 in 0.00 W/m2
03:35 47.6 °F 43.6 °F 29.90 in SE 8.0 mph 11.0 mph 86 % 0.00 in 0.00 W/m2
03:40 47.6 °F 43.6 °F 29.90 in SE 6.0 mph 9.0 mph 86 % 0.00 in 0.00 W/m2
03:45 47.6 °F 43.6 °F 29.90 in Calm   10.0 mph 86 % 0.00 in 0.00 W/m2
03:50 47.6 °F 43.6 °F 29.90 in SE 4.0 mph 9.0 mph 86 % 0.00 in 0.00 W/m2
03:55 47.7 °F 43.7 °F 29.90 in Calm   8.0 mph 86 % 0.00 in 0.00 W/m2
04:00 47.6 °F 43.6 °F 29.90 in SE 1.0 mph 1.0 mph 86 % 0.00 in 0.00 W/m2
04:05 47.6 °F 43.3 °F 29.90 in Calm   1.0 mph 85 % 0.00 in 0.00 W/m2
04:10 47.4 °F 43.1 °F 29.90 in Calm   1.0 mph 85 % 0.00 in 0.00 W/m2
04:15 47.4 °F 43.1 °F 29.90 in Calm   1.0 mph 85 % 0.00 in 0.00 W/m2
04:20 47.3 °F 43.0 °F 29.91 in Calm     85 % 0.00 in 0.00 W/m2
04:25 47.2 °F 42.9 °F 29.91 in Calm     85 % 0.00 in 0.00 W/m2
04:30 47.0 °F 42.4 °F 29.92 in Calm     84 % 0.00 in 0.00 W/m2
04:35 46.9 °F 42.6 °F 29.91 in Calm     85 % 0.00 in 0.00 W/m2
04:40 46.7 °F 42.4 °F 29.91 in Calm     85 % 0.00 in 0.00 W/m2
04:45 46.6 °F 42.3 °F 29.91 in Calm     85 % 0.00 in 0.00 W/m2
04:50 46.5 °F 42.2 °F 29.91 in Calm     85 % 0.00 in 0.00 W/m2
04:55 46.4 °F 42.1 °F 29.91 in Calm     85 % 0.00 in 0.00 W/m2
05:00 46.3 °F 42.0 °F 29.91 in Calm     85 % 0.00 in 0.00 W/m2
05:05 46.2 °F 42.0 °F 29.91 in Calm     85 % 0.00 in 0.00 W/m2
05:10 46.1 °F 42.2 °F 29.91 in Calm     86 % 0.00 in 0.00 W/m2
05:15 46.0 °F 42.0 °F 29.91 in Calm     86 % 0.00 in 0.00 W/m2
05:20 46.0 °F 42.0 °F 29.90 in Calm     86 % 0.00 in 0.00 W/m2
05:25 45.9 °F 42.3 °F 29.91 in Calm     87 % 0.00 in 0.00 W/m2
05:30 45.9 °F 42.3 °F 29.91 in Calm     87 % 0.00 in 0.00 W/m2
05:35 45.9 °F 42.3 °F 29.91 in Calm     87 % 0.00 in 0.00 W/m2
05:40 45.9 °F 42.3 °F 29.91 in Calm     87 % 0.00 in 7.00 W/m2
05:45 45.9 °F 42.5 °F 29.90 in Calm     88 % 0.00 in 9.00 W/m2
05:50 45.9 °F 42.5 °F 29.91 in Calm     88 % 0.00 in 12.00 W/m2
05:56 45.9 °F 42.5 °F 29.91 in Calm     88 % 0.00 in 14.00 W/m2
06:01 46.0 °F 42.7 °F 29.91 in Calm     88 % 0.00 in 16.00 W/m2
06:06 46.0 °F 42.7 °F 29.91 in Calm     88 % 0.00 in 18.00 W/m2
06:11 46.0 °F 43.8 °F 29.91 in Calm     92 % 0.00 in 23.00 W/m2
06:16 46.0 °F 42.7 °F 29.91 in Calm     88 % 0.00 in 40.00 W/m2
06:21 45.8 °F 42.5 °F 29.91 in Calm     88 % 0.00 in 51.00 W/m2
06:26 45.6 °F 42.3 °F 29.91 in Calm     88 % 0.00 in 62.00 W/m2
06:31 45.6 °F 42.3 °F 29.91 in Calm     88 % 0.00 in 74.00 W/m2
06:36 45.6 °F 42.3 °F 29.91 in Calm     88 % 0.00 in 88.00 W/m2
06:41 45.6 °F 42.3 °F 29.91 in Calm     88 % 0.00 in 102.00 W/m2
06:46 45.7 °F 42.4 °F 29.91 in Calm     88 % 0.00 in 121.00 W/m2
06:51 45.8 °F 42.5 °F 29.91 in Calm     88 % 0.00 in 141.00 W/m2
06:56 45.9 °F 42.5 °F 29.92 in Calm     88 % 0.00 in 162.00 W/m2
07:01 46.0 °F 42.7 °F 29.92 in Calm     88 % 0.00 in 181.00 W/m2
07:06 46.0 °F 43.8 °F 29.92 in Calm     92 % 0.00 in 202.00 W/m2
07:11 46.1 °F 42.8 °F 29.92 in Calm     88 % 0.00 in 221.00 W/m2
07:16 46.3 °F 43.0 °F 29.92 in Calm     88 % 0.00 in 239.00 W/m2
07:21 46.4 °F 43.0 °F 29.92 in Calm     88 % 0.00 in 260.00 W/m2
07:26 46.5 °F 43.1 °F 29.92 in Calm     88 % 0.00 in 279.00 W/m2
07:28 46.6 °F 43.2 °F 29.92 in Calm     88 % 0.00 in 287.00 W/m2
07:33 46.8 °F 43.4 °F 29.92 in SSE 6.0 mph 8.0 mph 88 % 0.00 in 304.00 W/m2
07:38 47.0 °F 43.6 °F 29.92 in Calm   9.0 mph 88 % 0.00 in 318.00 W/m2
07:43 47.2 °F 43.8 °F 29.92 in Calm     88 % 0.00 in 334.00 W/m2
07:48 47.4 °F 44.0 °F 29.92 in Calm     88 % 0.00 in 352.00 W/m2
07:53 47.6 °F 44.2 °F 29.92 in Calm     88 % 0.00 in 369.00 W/m2
07:58 47.7 °F 44.3 °F 29.92 in Calm   5.0 mph 88 % 0.00 in 387.00 W/m2
08:03 47.8 °F 44.4 °F 29.93 in Calm     88 % 0.00 in 403.00 W/m2
08:08 48.1 °F 44.7 °F 29.92 in Calm     88 % 0.00 in 418.00 W/m2
08:13 48.2 °F 44.8 °F 29.92 in Calm     88 % 0.00 in 434.00 W/m2
08:18 48.3 °F 44.9 °F 29.93 in SSW 1.0 mph 1.0 mph 88 % 0.00 in 450.00 W/m2
08:23 48.2 °F 45.4 °F 29.93 in Calm   1.0 mph 90 % 0.00 in 464.00 W/m2
08:28 48.5 °F 44.2 °F 29.93 in SSW 4.0 mph 10.0 mph 85 % 0.00 in 480.00 W/m2
08:33 48.4 °F 43.8 °F 29.93 in Calm   1.0 mph 84 % 0.00 in 496.00 W/m2
08:38 48.5 °F 43.3 °F 29.94 in Calm   7.0 mph 82 % 0.00 in 512.00 W/m2
08:43 48.6 °F 42.7 °F 29.94 in Calm     80 % 0.00 in 527.00 W/m2
08:48 48.8 °F 42.9 °F 29.94 in Calm     80 % 0.00 in 540.00 W/m2
08:53 49.0 °F 43.4 °F 29.94 in Calm     81 % 0.00 in 555.00 W/m2
08:58 49.1 °F 42.9 °F 29.94 in Calm     79 % 0.00 in 571.00 W/m2
09:03 49.3 °F 42.4 °F 29.94 in Calm     77 % 0.00 in 584.00 W/m2
09:08 49.4 °F 42.8 °F 29.94 in Calm     78 % 0.00 in 599.00 W/m2
09:13 49.6 °F 43.4 °F 29.94 in Calm     79 % 0.00 in 615.00 W/m2
09:18 49.7 °F 42.8 °F 29.95 in Calm     77 % 0.00 in 629.00 W/m2
09:23 49.9 °F 42.7 °F 29.95 in Calm     76 % 0.00 in 643.00 W/m2
09:28 50.1 °F 43.2 °F 29.95 in Calm     77 % 0.00 in 656.00 W/m2
09:33 50.3 °F 43.0 °F 29.95 in Calm     76 % 0.00 in 668.00 W/m2
09:38 50.5 °F 42.9 °F 29.95 in Calm     75 % 0.00 in 684.00 W/m2
09:40 50.5 °F 42.5 °F 29.95 in Calm     74 % 0.00 in 687.00 W/m2
09:45 50.8 °F 42.8 °F 29.94 in SSW 3.0 mph 10.0 mph 74 % 0.00 in 698.00 W/m2
09:50 51.0 °F 42.3 °F 29.94 in SSW 6.0 mph 10.0 mph 72 % 0.00 in 712.00 W/m2
09:55 51.2 °F 42.1 °F 29.94 in Calm   9.0 mph 71 % 0.00 in 726.00 W/m2
10:00 51.5 °F 43.1 °F 29.95 in South 1.0 mph 1.0 mph 73 % 0.00 in 740.00 W/m2
10:05 51.9 °F 42.4 °F 29.95 in Calm   1.0 mph 70 % 0.00 in 749.00 W/m2
10:10 52.2 °F 43.8 °F 29.94 in Calm   1.0 mph 73 % 0.00 in 763.00 W/m2
10:15 52.5 °F 44.5 °F 29.94 in SSW 2.0 mph 11.0 mph 74 % 0.00 in 777.00 W/m2
10:20 52.8 °F 44.0 °F 29.94 in SSW 5.0 mph 9.0 mph 72 % 0.00 in 788.00 W/m2
10:25 53.1 °F 43.2 °F 29.94 in Calm   9.0 mph 69 % 0.00 in 795.00 W/m2
10:30 53.4 °F 43.1 °F 29.94 in Calm   7.0 mph 68 % 0.00 in 805.00 W/m2
10:32 53.5 °F 44.0 °F 29.94 in Calm     70 % 0.00 in 810.00 W/m2
10:42 54.2 °F 44.6 °F 29.95 in SSW 6.0 mph 11.0 mph 70 % 0.00 in 831.00 W/m2
10:47 54.6 °F 45.4 °F 29.95 in SSW 4.0 mph 12.0 mph 71 % 0.00 in 840.00 W/m2
10:52 55.0 °F 45.0 °F 29.95 in Calm   1.0 mph 69 % 0.00 in 844.00 W/m2
10:57 55.3 °F 45.3 °F 29.95 in SW 1.0 mph 1.0 mph 69 % 0.00 in 856.00 W/m2
11:02 55.6 °F 46.7 °F 29.95 in SSW 3.0 mph 11.0 mph 72 % 0.00 in 865.00 W/m2
11:07 55.7 °F 44.5 °F 29.95 in WSW 7.0 mph 7.0 mph 66 % 0.00 in 870.00 W/m2
11:12 55.8 °F 45.0 °F 29.96 in Calm   7.0 mph 67 % 0.00 in 881.00 W/m2
11:17 56.0 °F 45.2 °F 29.96 in SW 8.0 mph 11.0 mph 67 % 0.00 in 889.00 W/m2
11:22 56.1 °F 44.9 °F 29.96 in WSW 3.0 mph 8.0 mph 66 % 0.00 in 895.00 W/m2
11:27 56.2 °F 45.4 °F 29.96 in SW 5.0 mph 10.0 mph 67 % 0.00 in 902.00 W/m2
11:33 56.3 °F 44.7 °F 29.96 in Calm   10.0 mph 65 % 0.00 in 905.00 W/m2
11:38 56.4 °F 45.2 °F 29.96 in SW 1.0 mph 9.0 mph 66 % 0.00 in 912.00 W/m2
11:43 56.7 °F 45.9 °F 29.96 in Calm   12.0 mph 67 % 0.00 in 923.00 W/m2
11:48 56.9 °F 45.3 °F 29.96 in SW 9.0 mph 12.0 mph 65 % 0.00 in 947.00 W/m2
11:53 57.1 °F 43.8 °F 29.96 in WNW 3.0 mph 10.0 mph 61 % 0.00 in 960.00 W/m2
11:58 57.1 °F 43.4 °F 29.96 in Calm     60 % 0.00 in 940.00 W/m2
12:03 57.2 °F 44.7 °F 29.96 in Calm   1.0 mph 63 % 0.00 in 942.00 W/m2
12:08 57.3 °F 44.0 °F 29.96 in Calm     61 % 0.00 in 937.00 W/m2
12:13 57.4 °F 45.3 °F 29.96 in WSW 8.0 mph 9.0 mph 64 % 0.00 in 969.00 W/m2
12:18 57.6 °F 45.5 °F 29.96 in WSW 7.0 mph 10.0 mph 64 % 0.00 in 977.00 W/m2
12:23 57.9 °F 46.2 °F 29.95 in Calm   1.0 mph 65 % 0.00 in 988.00 W/m2
12:28 58.2 °F 46.9 °F 29.96 in SW 4.0 mph 4.0 mph 66 % 0.00 in 995.00 W/m2
12:33 58.6 °F 45.6 °F 29.96 in WSW 7.0 mph 10.0 mph 62 % 0.00 in 1005.00 W/m2
12:38 58.6 °F 44.8 °F 29.96 in SW 4.0 mph 11.0 mph 60 % 0.00 in 972.00 W/m2
12:43 58.6 °F 44.8 °F 29.95 in Calm   9.0 mph 60 % 0.00 in 976.00 W/m2
12:48 58.9 °F 46.3 °F 29.96 in Calm   8.0 mph 63 % 0.00 in 988.00 W/m2
12:49 59.0 °F 45.6 °F 29.96 in Calm   8.0 mph 61 % 0.00 in 988.00 W/m2
12:54 59.1 °F 46.1 °F 29.95 in West 7.0 mph 8.0 mph 62 % 0.00 in 974.00 W/m2
12:59 59.2 °F 45.3 °F 29.95 in SSW 7.0 mph 11.0 mph 60 % 0.00 in 970.00 W/m2
13:04 59.6 °F 44.8 °F 29.95 in WSW 3.0 mph 11.0 mph 58 % 0.00 in 981.00 W/m2
13:09 59.8 °F 47.2 °F 29.95 in SW 7.0 mph 12.0 mph 63 % 0.00 in 970.00 W/m2
13:14 60.1 °F 45.3 °F 29.95 in SW 7.0 mph 11.0 mph 58 % 0.00 in 960.00 W/m2
13:19 60.3 °F 45.0 °F 29.95 in WSW 7.0 mph 9.0 mph 57 % 0.00 in 956.00 W/m2
13:24 60.3 °F 45.0 °F 29.94 in SSW 5.0 mph 13.0 mph 57 % 0.00 in 956.00 W/m2
13:29 60.3 °F 46.4 °F 29.94 in Calm   11.0 mph 60 % 0.00 in 956.00 W/m2
13:34 60.3 °F 45.0 °F 29.94 in SW 6.0 mph 10.0 mph 57 % 0.00 in 951.00 W/m2
13:39 60.7 °F 45.4 °F 29.94 in Calm   13.0 mph 57 % 0.00 in 949.00 W/m2
13:44 61.0 °F 46.6 °F 29.94 in Calm   10.0 mph 59 % 0.00 in 947.00 W/m2
13:49 61.2 °F 44.9 °F 29.94 in Calm   1.0 mph 55 % 0.00 in 946.00 W/m2
13:54 60.9 °F 44.2 °F 29.94 in WSW 4.0 mph 11.0 mph 54 % 0.00 in 944.00 W/m2
13:59 60.5 °F 43.3 °F 29.94 in Calm   2.0 mph 53 % 0.00 in 944.00 W/m2
14:04 60.4 °F 44.2 °F 29.94 in Calm   3.0 mph 55 % 0.00 in 963.00 W/m2
14:09 60.3 °F 45.5 °F 29.94 in Calm   13.0 mph 58 % 0.00 in 923.00 W/m2
14:14 60.4 °F 45.1 °F 29.94 in Calm   10.0 mph 57 % 0.00 in 919.00 W/m2
14:19 60.5 °F 45.7 °F 29.94 in SW 4.0 mph 12.0 mph 58 % 0.00 in 919.00 W/m2
14:24 60.8 °F 43.6 °F 29.94 in Calm   1.0 mph 53 % 0.00 in 907.00 W/m2
14:29 61.0 °F 44.2 °F 29.94 in WSW 6.0 mph 10.0 mph 54 % 0.00 in 911.00 W/m2
14:34 61.1 °F 44.8 °F 29.94 in Calm   1.0 mph 55 % 0.00 in 904.00 W/m2
14:39 61.3 °F 45.5 °F 29.94 in SW 3.0 mph 11.0 mph 56 % 0.00 in 895.00 W/m2
14:44 61.6 °F 45.3 °F 29.94 in West 7.0 mph 9.0 mph 55 % 0.00 in 877.00 W/m2
14:49 61.3 °F 44.5 °F 29.94 in Calm   13.0 mph 54 % 0.00 in 875.00 W/m2
14:54 61.4 °F 43.6 °F 29.93 in Calm   10.0 mph 52 % 0.00 in 863.00 W/m2
14:59 61.6 °F 43.3 °F 29.93 in Calm   12.0 mph 51 % 0.00 in 854.00 W/m2
15:04 61.7 °F 43.9 °F 29.93 in West 5.0 mph 11.0 mph 52 % 0.00 in 846.00 W/m2
15:09 61.7 °F 44.4 °F 29.93 in SW 12.0 mph 13.0 mph 53 % 0.00 in 837.00 W/m2
15:14 61.5 °F 43.2 °F 29.93 in Calm   7.0 mph 51 % 0.00 in 826.00 W/m2
15:19 61.2 °F 43.0 °F 29.93 in Calm   10.0 mph 51 % 0.00 in 816.00 W/m2
15:24 60.9 °F 44.2 °F 29.93 in WSW 1.0 mph 13.0 mph 54 % 0.00 in 807.00 W/m2
15:30 60.9 °F 43.2 °F 29.92 in Calm   11.0 mph 52 % 0.00 in 798.00 W/m2
15:35 60.5 °F 42.8 °F 29.92 in Calm   13.0 mph 52 % 0.00 in 793.00 W/m2
15:40 60.4 °F 42.7 °F 29.92 in WSW 10.0 mph 13.0 mph 52 % 0.00 in 772.00 W/m2
15:45 60.4 °F 43.2 °F 29.92 in SW 1.0 mph 11.0 mph 53 % 0.00 in 765.00 W/m2
15:50 60.6 °F 43.4 °F 29.92 in West 5.0 mph 9.0 mph 53 % 0.00 in 758.00 W/m2
15:55 60.7 °F 43.0 °F 29.92 in WSW 1.0 mph 8.0 mph 52 % 0.00 in 745.00 W/m2
16:00 60.8 °F 43.1 °F 29.92 in SW 10.0 mph 12.0 mph 52 % 0.00 in 737.00 W/m2
16:05 60.8 °F 43.1 °F 29.92 in Calm   14.0 mph 52 % 0.00 in 722.00 W/m2
16:10 60.9 °F 43.2 °F 29.92 in Calm   12.0 mph 52 % 0.00 in 719.00 W/m2
16:15 60.9 °F 43.2 °F 29.92 in Calm   13.0 mph 52 % 0.00 in 703.00 W/m2
16:20 60.8 °F 42.1 °F 29.91 in Calm   1.0 mph 50 % 0.00 in 687.00 W/m2
16:25 60.8 °F 42.6 °F 29.91 in Calm   1.0 mph 51 % 0.00 in 666.00 W/m2
16:30 60.8 °F 43.1 °F 29.91 in Calm   1.0 mph 52 % 0.00 in 664.00 W/m2
16:35 60.8 °F 43.1 °F 29.91 in Calm   12.0 mph 52 % 0.00 in 654.00 W/m2
16:40 60.9 °F 42.7 °F 29.91 in Calm   9.0 mph 51 % 0.00 in 645.00 W/m2
16:45 60.9 °F 43.2 °F 29.91 in Calm   1.0 mph 52 % 0.00 in 636.00 W/m2
16:50 61.0 °F 43.3 °F 29.92 in SW 1.0 mph 13.0 mph 52 % 0.00 in 320.00 W/m2
16:55 61.0 °F 42.8 °F 29.92 in Calm   1.0 mph 51 % 0.00 in 294.00 W/m2
17:00 60.9 °F 43.7 °F 29.91 in Calm     53 % 0.00 in 647.00 W/m2
17:05 60.8 °F 43.6 °F 29.91 in Calm     53 % 0.00 in 599.00 W/m2
17:10 60.8 °F 42.6 °F 29.91 in Calm   13.0 mph 51 % 0.00 in 564.00 W/m2
17:15 60.7 °F 42.0 °F 29.91 in WSW 6.0 mph 13.0 mph 50 % 0.00 in 570.00 W/m2
17:20 60.6 °F 41.9 °F 29.91 in Calm   12.0 mph 50 % 0.00 in 109.00 W/m2
17:25 60.5 °F 42.8 °F 29.91 in Calm   1.0 mph 52 % 0.00 in 548.00 W/m2
17:30 60.4 °F 42.7 °F 29.91 in SSW 3.0 mph 13.0 mph 52 % 0.00 in 496.00 W/m2
17:35 60.4 °F 42.2 °F 29.91 in Calm   9.0 mph 51 % 0.00 in 482.00 W/m2
17:40 60.3 °F 42.1 °F 29.91 in WSW 1.0 mph 1.0 mph 51 % 0.00 in 473.00 W/m2
17:45 60.3 °F 41.6 °F 29.91 in SW 5.0 mph 13.0 mph 50 % 0.00 in 473.00 W/m2
17:46 60.4 °F 41.7 °F 29.91 in WSW 10.0 mph 10.0 mph 50 % 0.00 in 473.00 W/m2
17:51 60.2 °F 42.0 °F 29.91 in Calm     51 % 0.00 in 88.00 W/m2
17:56 60.0 °F 42.8 °F 29.91 in West 9.0 mph 11.0 mph 53 % 0.00 in 418.00 W/m2
18:01 59.7 °F 43.5 °F 29.91 in Calm     55 % 0.00 in 102.00 W/m2
18:06 59.5 °F 43.3 °F 29.90 in Calm   1.0 mph 55 % 0.00 in 139.00 W/m2
18:11 59.4 °F 44.2 °F 29.90 in Calm     57 % 0.00 in 441.00 W/m2
18:16 59.3 °F 43.2 °F 29.90 in Calm     55 % 0.00 in 388.00 W/m2
18:21 59.3 °F 42.7 °F 29.90 in Calm     54 % 0.00 in 371.00 W/m2
18:26 59.3 °F 44.1 °F 29.90 in SSW 3.0 mph 7.0 mph 57 % 0.00 in 327.00 W/m2
18:31 59.2 °F 42.6 °F 29.90 in WSW 2.0 mph 4.0 mph 54 % 0.00 in 97.00 W/m2
18:36 59.2 °F 42.6 °F 29.89 in Calm   1.0 mph 54 % 0.00 in 90.00 W/m2
18:41 59.1 °F 43.9 °F 29.89 in Calm     57 % 0.00 in 90.00 W/m2
18:46 58.9 °F 44.2 °F 29.89 in Calm     58 % 0.00 in 107.00 W/m2
18:51 58.8 °F 44.1 °F 29.89 in Calm     58 % 0.00 in 271.00 W/m2
18:56 58.7 °F 45.7 °F 29.89 in Calm     62 % 0.00 in 67.00 W/m2
19:01 58.5 °F 44.7 °F 29.89 in Calm     60 % 0.00 in 104.00 W/m2
19:06 58.3 °F 45.3 °F 29.89 in Calm     62 % 0.00 in 54.00 W/m2
19:11 58.2 °F 45.3 °F 29.89 in Calm     62 % 0.00 in 47.00 W/m2
19:16 58.0 °F 45.9 °F 29.89 in Calm     64 % 0.00 in 130.00 W/m2
19:21 57.8 °F 45.7 °F 29.89 in Calm     64 % 0.00 in 102.00 W/m2
19:26 57.6 °F 45.9 °F 29.89 in Calm   1.0 mph 65 % 0.00 in 81.00 W/m2
19:31 57.4 °F 45.3 °F 29.89 in WSW 3.0 mph 9.0 mph 64 % 0.00 in 53.00 W/m2
19:36 57.3 °F 45.7 °F 29.89 in Calm   1.0 mph 65 % 0.00 in 56.00 W/m2
19:41 57.2 °F 46.8 °F 29.89 in Calm     68 % 0.00 in 49.00 W/m2
19:46 57.2 °F 46.4 °F 29.89 in Calm   1.0 mph 67 % 0.00 in 42.00 W/m2
19:51 57.1 °F 46.3 °F 29.89 in Calm   1.0 mph 67 % 0.00 in 35.00 W/m2
19:56 57.0 °F 46.6 °F 29.89 in SSW 10.0 mph 12.0 mph 68 % 0.00 in 23.00 W/m2
20:01 56.9 °F 46.5 °F 29.89 in Calm     68 % 0.00 in 16.00 W/m2
20:06 56.8 °F 46.0 °F 29.89 in SW 4.0 mph 6.0 mph 67 % 0.00 in 12.00 W/m2
20:11 56.7 °F 46.3 °F 29.89 in Calm   1.0 mph 68 % 0.00 in 11.00 W/m2
20:16 56.6 °F 45.8 °F 29.90 in SSW 6.0 mph 9.0 mph 67 % 0.00 in 9.00 W/m2
20:21 56.5 °F 46.1 °F 29.90 in Calm   3.0 mph 68 % 0.00 in 7.00 W/m2
20:26 56.4 °F 46.4 °F 29.90 in Calm     69 % 0.00 in 5.00 W/m2
20:31 56.3 °F 46.3 °F 29.90 in SSW 9.0 mph 11.0 mph 69 % 0.00 in 5.00 W/m2
20:36 56.1 °F 46.5 °F 29.90 in SSW 7.0 mph 10.0 mph 70 % 0.00 in 0.00 W/m2
20:41 55.9 °F 46.3 °F 29.90 in Calm   1.0 mph 70 % 0.00 in 0.00 W/m2
20:46 55.8 °F 45.8 °F 29.90 in Calm   1.0 mph 69 % 0.00 in 0.00 W/m2
20:51 55.6 °F 46.0 °F 29.90 in Calm     70 % 0.00 in 0.00 W/m2
20:56 55.4 °F 45.8 °F 29.90 in Calm   2.0 mph 70 % 0.00 in 0.00 W/m2
21:01 55.3 °F 46.1 °F 29.90 in Calm     71 % 0.00 in 0.00 W/m2
21:06 55.1 °F 45.9 °F 29.90 in Calm     71 % 0.00 in 0.00 W/m2
21:11 55.0 °F 46.2 °F 29.90 in Calm     72 % 0.00 in 0.00 W/m2
21:16 54.9 °F 46.4 °F 29.90 in Calm     73 % 0.00 in 0.00 W/m2
21:21 54.8 °F 46.3 °F 29.90 in Calm     73 % 0.00 in 0.00 W/m2
21:26 54.6 °F 46.1 °F 29.90 in Calm     73 % 0.00 in 0.00 W/m2
21:31 54.4 °F 46.3 °F 29.90 in Calm     74 % 0.00 in 0.00 W/m2
21:36 54.2 °F 46.1 °F 29.90 in Calm     74 % 0.00 in 0.00 W/m2
21:41 54.1 °F 46.0 °F 29.90 in Calm     74 % 0.00 in 0.00 W/m2
21:46 54.0 °F 46.3 °F 29.90 in Calm     75 % 0.00 in 0.00 W/m2
21:48 53.9 °F 46.2 °F 29.90 in Calm     75 % 0.00 in 0.00 W/m2
21:53 53.9 °F 46.2 °F 29.90 in Calm     75 % 0.00 in 0.00 W/m2
21:58 53.8 °F 46.1 °F 29.91 in SSE 10.0 mph 11.0 mph 75 % 0.00 in 0.00 W/m2
22:03 53.7 °F 46.0 °F 29.91 in Calm   1.0 mph 75 % 0.00 in 0.00 W/m2
22:08 53.7 °F 46.3 °F 29.91 in South 2.0 mph 8.0 mph 76 % 0.00 in 0.00 W/m2
22:13 53.6 °F 46.2 °F 29.91 in Calm   5.0 mph 76 % 0.00 in 0.00 W/m2
22:18 53.5 °F 46.1 °F 29.91 in Calm   9.0 mph 76 % 0.00 in 0.00 W/m2
22:23 53.4 °F 46.0 °F 29.91 in South 7.0 mph 11.0 mph 76 % 0.00 in 0.00 W/m2
22:28 53.3 °F 45.9 °F 29.91 in SSE 5.0 mph 10.0 mph 76 % 0.00 in 0.00 W/m2
22:33 53.2 °F 45.8 °F 29.91 in Calm   8.0 mph 76 % 0.00 in 0.00 W/m2
22:38 53.1 °F 45.8 °F 29.91 in SSE 9.0 mph 13.0 mph 76 % 0.00 in 0.00 W/m2
22:43 52.9 °F 45.5 °F 29.91 in South 4.0 mph 12.0 mph 76 % 0.00 in 0.00 W/m2
22:48 52.8 °F 45.5 °F 29.91 in Calm   1.0 mph 76 % 0.00 in 0.00 W/m2
22:53 52.7 °F 45.7 °F 29.91 in South 9.0 mph 10.0 mph 77 % 0.00 in 0.00 W/m2
22:58 52.6 °F 45.3 °F 29.91 in Calm   6.0 mph 76 % 0.00 in 0.00 W/m2
23:03 52.5 °F 45.5 °F 29.91 in South 9.0 mph 11.0 mph 77 % 0.00 in 0.00 W/m2
23:08 52.3 °F 45.3 °F 29.90 in South 5.0 mph 13.0 mph 77 % 0.00 in 0.00 W/m2
23:13 52.2 °F 45.2 °F 29.90 in South 6.0 mph 11.0 mph 77 % 0.00 in 0.00 W/m2
23:18 52.1 °F 45.1 °F 29.90 in South 6.0 mph 13.0 mph 77 % 0.00 in 0.00 W/m2
23:23 52.0 °F 45.0 °F 29.90 in South 7.0 mph 10.0 mph 77 % 0.00 in 0.00 W/m2
23:28 51.8 °F 45.2 °F 29.90 in South 9.0 mph 9.0 mph 78 % 0.00 in 0.00 W/m2
23:33 51.6 °F 45.0 °F 29.90 in South 5.0 mph 11.0 mph 78 % 0.00 in 0.00 W/m2
23:38 51.5 °F 44.9 °F 29.90 in South 5.0 mph 9.0 mph 78 % 0.00 in 0.00 W/m2
23:43 51.4 °F 44.8 °F 29.90 in Calm   9.0 mph 78 % 0.00 in 0.00 W/m2
23:48 51.2 °F 44.6 °F 29.90 in South 10.0 mph 13.0 mph 78 % 0.00 in 0.00 W/m2
23:53 51.2 °F 44.9 °F 29.90 in South 3.0 mph 8.0 mph 79 % 0.00 in 0.00 W/m2
23:58 51.0 °F 44.7 °F 29.90 in South 8.0 mph 12.0 mph 79 % 0.00 in 0.00 W/m2
Juneau County Weather
Compliments of Weather Underground - 4.5 mb
 WU-history PHP script courtesy of   Juneau County Weather.
powered by Cumulus v1.9.3 (1059)
Ambient Weather VWS v14.00
Top Contact Website Map Copyright © 2007 - 2018 Foresthillweather.com Never base important decisions on this or any weather information obtained from the Internet